Elsenborn, Belgium
Current Conditions -  °F | °C
As of 7:45 PM on Friday 24 Oct 2014 (Local Time) from EBLB Reporting Station
Overcast Overcast  
Wind Chill: 44°   Ceiling: 14000
Heat Index: 46°   Visibility: 6mi
Dew Point: 43°   Wind: 5mph
Humidity: 87%   Direction: 200°SSW
Pressure: 30.06"   Gusts: NA
Location:  50.46°N, 6.22°E
Report Text: EBLB 241745Z AUTO 20004KT 9999 FEW015/// SCT120/// OVC140/// 08/06 Q1018 BLU
Loading
Personal Weather Stations






























Interactive Weather Map
Tropical Storm Tracking
New forecast layout! Learn more

10-Day Weather Forecast

Advertisements
Track Severe Weather on mobile